createdAt,value
2022-09-05T00:00:19.396Z,46.49
2022-09-05T00:03:34.274Z,46.41
2022-09-05T00:06:22.227Z,46.40
2022-09-05T00:09:19.125Z,46.44
2022-09-05T00:12:09.901Z,46.63
2022-09-05T00:15:27.226Z,46.40
2022-09-05T00:23:43.913Z,46.25
2022-09-05T00:24:25.377Z,46.23
2022-09-05T00:28:45.954Z,46.12
2022-09-05T00:32:04.296Z,46.11
2022-09-05T00:35:07.949Z,46.00
2022-09-05T00:37:54.789Z,45.78
2022-09-05T00:40:47.777Z,45.84
2022-09-05T00:43:42.988Z,45.84
2022-09-05T00:46:33.689Z,45.82
2022-09-05T00:49:45.668Z,45.63
2022-09-05T00:52:40.114Z,45.63
2022-09-05T00:55:32.125Z,45.62
2022-09-05T00:58:34.133Z,45.29
2022-09-05T01:01:29.473Z,45.33
2022-09-05T01:04:27.649Z,45.21
2022-09-05T01:07:46.513Z,45.08
2022-09-05T01:10:39.096Z,45.17
2022-09-05T01:13:40.341Z,44.99
2022-09-05T01:16:52.360Z,45.11
2022-09-05T01:19:50.802Z,44.82
2022-09-05T01:22:55.481Z,44.95
2022-09-05T01:26:11.802Z,44.80
2022-09-05T01:29:23.003Z,44.77
2022-09-05T01:32:21.129Z,44.88
2022-09-05T01:35:26.028Z,44.83
2022-09-05T01:38:37.308Z,44.89
2022-09-05T01:42:11.413Z,45.01
2022-09-05T01:45:39.917Z,44.96
2022-09-05T01:48:31.909Z,44.90
2022-09-05T01:51:33.469Z,44.84
2022-09-05T01:54:38.237Z,44.73
2022-09-05T01:57:38.805Z,44.84
2022-09-05T02:00:35.413Z,44.96
2022-09-05T02:03:44.577Z,44.84
2022-09-05T02:06:53.645Z,44.91
2022-09-05T02:09:40.214Z,44.99
2022-09-05T02:12:35.330Z,44.80
2022-09-05T02:15:36.378Z,44.69
2022-09-05T02:18:38.049Z,44.86
2022-09-05T02:21:55.662Z,44.72
2022-09-05T02:24:53.587Z,44.67
2022-09-05T02:28:29.486Z,44.54
2022-09-05T02:31:34.471Z,44.78
2022-09-05T02:34:48.597Z,44.71
2022-09-05T02:38:38.043Z,44.58
2022-09-05T02:45:13.548Z,44.68
2022-09-05T02:45:20.114Z,44.57
2022-09-05T02:47:15.938Z,44.48
2022-09-05T02:51:12.790Z,44.56
2022-09-05T02:57:34.568Z,44.47
2022-09-05T02:57:39.947Z,44.33
2022-09-05T03:00:18.446Z,44.41
2022-09-05T03:03:17.417Z,44.24
2022-09-05T03:06:35.152Z,44.22
2022-09-05T03:09:55.328Z,44.36
2022-09-05T03:13:04.543Z,44.11
2022-09-05T03:15:53.664Z,44.24
2022-09-05T03:18:45.430Z,44.25
2022-09-05T03:21:53.209Z,44.20
2022-09-05T03:25:03.673Z,44.27
2022-09-05T03:28:03.397Z,44.23
2022-09-05T03:31:20.294Z,44.14
2022-09-05T03:34:27.122Z,44.04
2022-09-05T03:37:51.985Z,44.12
2022-09-05T03:41:06.877Z,44.08
2022-09-05T03:44:32.390Z,44.06
2022-09-05T03:47:47.228Z,44.12
2022-09-05T03:57:06.233Z,44.02
2022-09-05T03:57:14.287Z,43.93
2022-09-05T03:57:57.597Z,43.99
2022-09-05T04:01:25.592Z,43.90
2022-09-05T04:08:28.208Z,43.83
2022-09-05T04:08:29.604Z,43.87
2022-09-05T04:11:14.132Z,44.05
2022-09-05T04:14:26.868Z,44.07
2022-09-05T04:18:04.210Z,44.12
2022-09-05T04:21:05.124Z,43.95
2022-09-05T04:24:03.715Z,43.98
2022-09-05T04:27:28.134Z,43.97
2022-09-05T04:30:39.119Z,43.96
2022-09-05T04:33:43.284Z,43.88
2022-09-05T04:36:33.528Z,43.85
2022-09-05T04:39:19.663Z,43.96
2022-09-05T04:42:05.153Z,44.03
2022-09-05T04:45:10.549Z,43.94
2022-09-05T04:48:00.852Z,43.98
2022-09-05T04:51:08.273Z,44.09
2022-09-05T04:54:15.421Z,44.09
2022-09-05T04:57:22.765Z,44.14
2022-09-05T05:06:02.446Z,44.11
2022-09-05T05:06:18.898Z,44.08
2022-09-05T05:07:10.068Z,44.21
2022-09-05T05:11:06.156Z,44.09
2022-09-05T05:18:00.928Z,44.20
2022-09-05T05:18:08.799Z,44.37
2022-09-05T05:19:37.946Z,44.43
2022-09-05T05:22:24.298Z,44.54
2022-09-05T05:25:13.309Z,44.45
2022-09-05T05:28:23.995Z,44.95
2022-09-05T05:31:21.579Z,44.64
2022-09-05T05:34:29.731Z,44.78
2022-09-05T05:37:38.442Z,44.89
2022-09-05T05:40:28.726Z,44.63
2022-09-05T05:43:20.873Z,44.45
2022-09-05T05:46:08.596Z,44.78
2022-09-05T05:49:07.822Z,44.44
2022-09-05T05:52:27.668Z,44.46
2022-09-05T05:55:50.556Z,44.35
2022-09-05T05:59:09.811Z,44.39
2022-09-05T06:01:58.679Z,44.44
2022-09-05T06:04:45.362Z,44.18
2022-09-05T06:10:44.378Z,44.21
2022-09-05T06:15:07.079Z,44.24
2022-09-05T06:15:26.645Z,44.20
2022-09-05T06:18:49.725Z,44.05
2022-09-05T06:22:09.936Z,44.17
2022-09-05T06:25:30.013Z,43.94
2022-09-05T06:28:30.524Z,44.16
2022-09-05T06:31:47.832Z,44.05
2022-09-05T06:34:42.821Z,43.98
2022-09-05T06:37:45.223Z,43.96
2022-09-05T06:41:22.429Z,44.13
2022-09-05T06:44:15.281Z,43.70
2022-09-05T06:47:23.197Z,43.78
2022-09-05T06:50:26.941Z,44.00
2022-09-05T06:53:47.098Z,44.00
2022-09-05T06:59:57.834Z,44.03
2022-09-05T07:03:02.972Z,44.04
2022-09-05T07:06:19.526Z,43.85
2022-09-05T07:09:32.387Z,43.95
2022-09-05T07:12:30.156Z,43.98
2022-09-05T07:15:47.323Z,44.02
2022-09-05T07:19:03.155Z,44.06
2022-09-05T07:22:29.377Z,44.06
2022-09-05T07:25:31.626Z,43.91
2022-09-05T07:28:29.898Z,44.14
2022-09-05T07:31:27.321Z,44.06
2022-09-05T07:34:31.427Z,43.96
2022-09-05T07:37:29.612Z,44.20
2022-09-05T07:40:26.280Z,44.16
2022-09-05T07:43:19.425Z,43.91
2022-09-05T07:46:19.503Z,44.08
2022-09-05T07:49:12.141Z,44.27
2022-09-05T07:56:50.219Z,44.24
2022-09-05T07:57:09.635Z,44.15
2022-09-05T07:58:41.724Z,44.31
2022-09-05T08:01:27.762Z,44.31
2022-09-05T08:04:22.364Z,44.19
2022-09-05T08:07:46.438Z,44.30
2022-09-05T08:11:22.562Z,44.17
2022-09-05T08:13:53.603Z,44.35
2022-09-05T08:16:52.627Z,44.23
2022-09-05T08:20:07.922Z,44.33
2022-09-05T08:23:07.637Z,44.20
2022-09-05T08:25:59.481Z,44.26
2022-09-05T08:29:05.721Z,44.16
2022-09-05T08:32:18.216Z,44.19
2022-09-05T08:35:09.633Z,44.00
2022-09-05T08:37:58.073Z,44.08
2022-09-05T08:41:04.964Z,43.96
2022-09-05T08:46:40.348Z,44.05
2022-09-05T08:48:14.149Z,43.88
2022-09-05T08:51:18.784Z,43.96
2022-09-05T08:54:14.100Z,43.79
2022-09-05T08:57:39.021Z,43.73
2022-09-05T09:00:31.358Z,43.73
2022-09-05T09:04:01.993Z,43.72
2022-09-05T09:07:47.793Z,43.64
2022-09-05T09:10:34.904Z,43.73
2022-09-05T09:14:23.395Z,43.57
2022-09-05T09:17:29.429Z,43.51
2022-09-05T09:20:22.764Z,43.52
2022-09-05T09:23:32.253Z,43.58
2022-09-05T09:26:37.575Z,43.29
2022-09-05T09:29:25.382Z,43.14
2022-09-05T09:32:17.559Z,43.13
2022-09-05T09:35:05.634Z,43.34
2022-09-05T09:38:13.910Z,43.13
2022-09-05T09:41:09.123Z,43.04
2022-09-05T09:44:46.383Z,42.58
2022-09-05T09:47:55.037Z,42.33
2022-09-05T09:51:12.252Z,42.68
2022-09-05T09:54:05.536Z,42.45
2022-09-05T09:57:22.473Z,41.93
2022-09-05T10:00:21.474Z,42.22
2022-09-05T10:09:56.559Z,42.38
2022-09-05T10:11:00.444Z,42.29
2022-09-05T10:11:24.508Z,41.95
2022-09-05T10:14:35.443Z,41.96
2022-09-05T10:17:22.118Z,41.77
2022-09-05T10:20:14.693Z,41.22
2022-09-05T10:23:37.862Z,41.71
2022-09-05T10:26:52.855Z,41.75
2022-09-05T10:30:03.798Z,41.15
2022-09-05T10:35:14.234Z,41.46
2022-09-05T10:36:39.152Z,41.35
2022-09-05T10:39:40.660Z,41.66
2022-09-05T10:43:00.980Z,41.76
2022-09-05T10:45:51.641Z,42.06
2022-09-05T10:49:03.395Z,41.50
2022-09-05T10:52:03.519Z,41.39
2022-09-05T10:55:30.368Z,41.15
2022-09-05T10:59:53.294Z,41.27
2022-09-05T11:02:27.671Z,41.40
2022-09-05T11:05:26.817Z,41.13
2022-09-05T11:08:26.884Z,41.15
2022-09-05T11:11:34.393Z,40.99
2022-09-05T11:14:53.915Z,40.61
2022-09-05T11:17:56.039Z,40.92
2022-09-05T11:20:44.856Z,40.84
2022-09-05T11:23:57.400Z,40.97
2022-09-05T11:27:28.333Z,41.32
2022-09-05T11:30:28.916Z,41.10
2022-09-05T11:39:53.883Z,40.98
2022-09-05T11:39:58.952Z,40.77
2022-09-05T11:40:31.711Z,40.33
2022-09-05T11:43:18.112Z,40.32
2022-09-05T11:46:37.153Z,40.82
2022-09-05T11:49:52.613Z,40.69
2022-09-05T11:52:55.038Z,40.30
2022-09-05T11:55:53.746Z,40.58
2022-09-05T11:59:07.215Z,40.71
2022-09-05T12:02:26.358Z,40.64
2022-09-05T12:05:49.689Z,40.82
2022-09-05T12:08:55.987Z,40.67
2022-09-05T12:12:41.462Z,40.89
2022-09-05T12:15:34.856Z,40.88
2022-09-05T12:18:36.469Z,40.73
2022-09-05T12:21:38.378Z,40.91
2022-09-05T12:25:26.569Z,40.69
2022-09-05T12:28:28.872Z,40.84
2022-09-05T12:32:50.421Z,40.37
2022-09-05T12:36:11.513Z,39.93
2022-09-05T12:40:08.662Z,40.34
2022-09-05T12:41:40.699Z,39.99
2022-09-05T12:44:44.728Z,40.07
2022-09-05T12:47:31.290Z,40.17
2022-09-05T12:50:23.176Z,39.81
2022-09-05T12:53:15.953Z,40.14
2022-09-05T12:57:29.172Z,40.10
2022-09-05T13:02:58.986Z,39.61
2022-09-05T13:03:14.118Z,39.80
2022-09-05T13:05:52.659Z,39.72
2022-09-05T13:08:59.071Z,39.80
2022-09-05T13:15:02.506Z,40.06
2022-09-05T13:15:23.536Z,39.92
2022-09-05T13:18:16.535Z,39.88
2022-09-05T13:21:08.449Z,39.71
2022-09-05T13:24:17.352Z,39.81
2022-09-05T13:27:17.185Z,39.27
2022-09-05T13:32:39.029Z,39.70
2022-09-05T13:38:16.420Z,39.39
2022-09-05T13:38:17.824Z,39.63
2022-09-05T13:40:03.846Z,39.52
2022-09-05T13:43:04.029Z,38.81
2022-09-05T13:46:10.993Z,39.20
2022-09-05T13:49:24.579Z,39.36
2022-09-05T13:52:35.703Z,39.31
2022-09-05T13:55:37.995Z,39.22
2022-09-05T13:58:56.674Z,39.37
2022-09-05T14:01:44.147Z,39.48
2022-09-05T14:05:20.765Z,39.43
2022-09-05T14:09:35.173Z,39.04
2022-09-05T14:12:11.534Z,39.20
2022-09-05T14:15:14.210Z,38.62
2022-09-05T14:18:20.431Z,38.51
2022-09-05T14:21:18.110Z,38.53
2022-09-05T14:24:27.920Z,38.76
2022-09-05T14:27:27.915Z,38.80
2022-09-05T14:33:56.641Z,38.42
2022-09-05T14:37:44.562Z,38.96
2022-09-05T14:37:54.128Z,38.36
2022-09-05T14:40:00.782Z,38.42
2022-09-05T14:43:14.240Z,38.48
2022-09-05T14:45:50.656Z,38.47
2022-09-05T14:48:45.667Z,38.55
2022-09-05T14:51:39.288Z,38.36
2022-09-05T15:02:33.956Z,37.95
2022-09-05T15:02:53.743Z,37.16
2022-09-05T15:03:03.839Z,37.65
2022-09-05T15:05:45.359Z,37.31
2022-09-05T15:10:20.387Z,37.94
2022-09-05T15:12:21.379Z,38.04
2022-09-05T15:14:07.711Z,38.03
2022-09-05T15:16:43.261Z,38.11
2022-09-05T15:19:11.993Z,38.18
2022-09-05T15:21:41.549Z,38.32
2022-09-05T15:24:21.238Z,38.37
2022-09-05T15:26:53.095Z,38.25
2022-09-05T15:29:26.755Z,38.31
2022-09-05T15:32:11.902Z,38.55
2022-09-05T15:34:39.861Z,38.56
2022-09-05T15:37:38.681Z,38.79
2022-09-05T15:40:07.630Z,38.52
2022-09-05T15:42:51.242Z,38.74
2022-09-05T15:45:37.861Z,38.51
2022-09-05T15:48:12.775Z,38.09
2022-09-05T15:50:55.408Z,38.67
2022-09-05T15:53:37.023Z,38.73
2022-09-05T15:56:19.593Z,38.52
2022-09-05T15:58:55.023Z,38.56
2022-09-05T16:01:59.757Z,37.87
2022-09-05T16:07:40.956Z,38.10
2022-09-05T16:10:33.768Z,38.19
2022-09-05T16:10:57.600Z,38.33
2022-09-05T16:13:19.397Z,38.20
2022-09-05T16:23:19.592Z,38.36
2022-09-05T16:23:24.301Z,38.42
2022-09-05T16:23:29.700Z,38.39
2022-09-05T16:25:00.247Z,38.50
2022-09-05T16:27:59.230Z,38.75
2022-09-05T16:30:29.071Z,39.07
2022-09-05T16:33:28.518Z,39.04
2022-09-05T16:36:04.612Z,39.35
2022-09-05T16:38:49.931Z,39.29
2022-09-05T16:41:26.763Z,39.09
2022-09-05T16:44:14.137Z,39.13
2022-09-05T16:46:56.282Z,39.33
2022-09-05T16:49:41.955Z,39.21
2022-09-05T16:52:17.216Z,39.43
2022-09-05T16:54:54.713Z,39.40
2022-09-05T16:57:35.778Z,39.46
2022-09-05T17:00:08.838Z,39.61
2022-09-05T17:02:50.423Z,39.63
2022-09-05T17:05:43.506Z,39.72
2022-09-05T17:08:10.901Z,39.75
2022-09-05T17:10:57.675Z,39.46
2022-09-05T17:13:50.958Z,39.50
2022-09-05T17:16:34.931Z,39.73
2022-09-05T17:19:03.257Z,39.87
2022-09-05T17:22:02.468Z,39.87
2022-09-05T17:29:28.939Z,39.69
2022-09-05T17:29:30.092Z,39.74
2022-09-05T17:33:01.570Z,39.82
2022-09-05T17:35:44.038Z,40.09
2022-09-05T17:38:20.923Z,39.98
2022-09-05T17:41:17.425Z,40.04
2022-09-05T17:44:10.471Z,40.12
2022-09-05T17:46:56.590Z,40.03
2022-09-05T17:49:45.462Z,40.08
2022-09-05T17:52:17.344Z,40.09
2022-09-05T17:54:49.941Z,39.88
2022-09-05T17:57:47.832Z,39.84
2022-09-05T18:00:50.237Z,39.75
2022-09-05T18:03:40.499Z,39.74
2022-09-05T18:06:14.700Z,39.63
2022-09-05T18:08:44.979Z,39.93
2022-09-05T18:14:10.064Z,39.52
2022-09-05T18:17:36.803Z,39.50
2022-09-05T18:19:41.414Z,39.30
2022-09-05T18:22:28.725Z,39.46
2022-09-05T18:25:28.875Z,39.52
2022-09-05T18:28:22.020Z,39.59
2022-09-05T18:30:50.360Z,39.11
2022-09-05T18:33:54.432Z,39.27
2022-09-05T18:36:25.929Z,39.34
2022-09-05T18:39:24.227Z,39.49
2022-09-05T18:42:26.630Z,39.51
2022-09-05T18:45:16.036Z,39.47
2022-09-05T18:47:59.032Z,39.28
2022-09-05T18:50:32.510Z,39.10
2022-09-05T18:53:09.911Z,39.27
2022-09-05T18:56:12.957Z,39.09
2022-09-05T18:59:15.517Z,38.67
2022-09-05T19:02:05.079Z,38.80
2022-09-05T19:04:55.108Z,38.61
2022-09-05T19:07:41.533Z,38.45
2022-09-05T19:10:34.522Z,38.54
2022-09-05T19:13:19.522Z,38.48
2022-09-05T19:16:43.993Z,38.79
2022-09-05T19:19:16.164Z,38.46
2022-09-05T19:22:48.553Z,38.36
2022-09-05T19:24:51.019Z,38.26
2022-09-05T19:28:23.389Z,38.37
2022-09-05T19:36:52.634Z,38.35
2022-09-05T19:37:04.342Z,38.25
2022-09-05T19:37:08.359Z,37.89
2022-09-05T19:39:36.282Z,37.87
2022-09-05T19:47:34.402Z,38.00
2022-09-05T19:47:34.475Z,37.91
2022-09-05T19:47:56.323Z,38.05
2022-09-05T19:50:21.111Z,37.92
2022-09-05T19:53:03.314Z,37.66
2022-09-05T19:55:37.590Z,37.78
2022-09-05T19:58:20.206Z,37.76
2022-09-05T20:01:02.243Z,37.23
2022-09-05T20:03:39.961Z,37.45
2022-09-05T20:06:29.076Z,37.73
2022-09-05T20:09:17.705Z,37.39
2022-09-05T20:11:53.542Z,37.49
2022-09-05T20:14:21.288Z,37.35
2022-09-05T20:16:52.379Z,37.11
2022-09-05T20:19:33.998Z,36.85
2022-09-05T20:22:21.179Z,37.19
2022-09-05T20:24:54.635Z,37.20
2022-09-05T20:27:27.685Z,37.33
2022-09-05T20:30:02.385Z,37.30
2022-09-05T20:32:46.052Z,36.87
2022-09-05T20:38:38.127Z,36.40
2022-09-05T20:43:29.713Z,36.74
2022-09-05T20:43:35.355Z,36.60
2022-09-05T20:44:16.940Z,36.98
2022-09-05T20:54:07.326Z,36.81
2022-09-05T20:54:12.676Z,36.68
2022-09-05T20:54:27.969Z,36.66
2022-09-05T20:55:42.048Z,36.86
2022-09-05T20:58:14.104Z,37.06
2022-09-05T21:01:20.497Z,37.04
2022-09-05T21:03:38.073Z,36.83
2022-09-05T21:06:29.435Z,37.08
2022-09-05T21:09:25.116Z,36.73
2022-09-05T21:11:56.148Z,36.67
2022-09-05T21:14:26.585Z,36.48
2022-09-05T21:17:13.446Z,36.56
2022-09-05T21:19:53.749Z,36.60
2022-09-05T21:22:43.816Z,36.12
2022-09-05T21:25:19.150Z,36.48
2022-09-05T21:28:05.700Z,36.56
2022-09-05T21:30:39.333Z,36.20
2022-09-05T21:33:15.968Z,36.08
2022-09-05T21:35:50.274Z,36.24
2022-09-05T21:38:32.290Z,36.04
2022-09-05T21:41:02.848Z,36.21
2022-09-05T21:47:37.332Z,36.07
2022-09-05T21:47:44.001Z,36.21
2022-09-05T21:49:09.925Z,36.31
2022-09-05T21:51:38.653Z,36.22
2022-09-05T21:59:21.572Z,36.21
2022-09-05T21:59:29.498Z,36.15
2022-09-05T21:59:57.742Z,35.63
2022-09-05T22:02:31.963Z,35.26
2022-09-05T22:05:03.135Z,35.41
2022-09-05T22:07:35.806Z,35.19
2022-09-05T22:10:05.851Z,35.40
2022-09-05T22:12:38.603Z,35.26
2022-09-05T22:15:27.586Z,35.69
2022-09-05T22:18:16.578Z,35.52
2022-09-05T22:20:51.795Z,35.46
2022-09-05T22:23:38.615Z,35.49
2022-09-05T22:26:06.705Z,34.94
2022-09-05T22:28:38.549Z,34.68
2022-09-05T22:31:07.166Z,34.97
2022-09-05T22:33:36.435Z,34.47
2022-09-05T22:36:04.521Z,34.63
2022-09-05T22:38:33.362Z,34.63
2022-09-05T22:41:00.969Z,34.05
2022-09-05T22:43:33.509Z,34.27
2022-09-05T22:46:00.983Z,33.98
2022-09-05T22:48:28.659Z,33.88
2022-09-05T22:50:56.633Z,34.20
2022-09-05T22:53:23.971Z,33.78
2022-09-05T22:55:57.912Z,34.12
2022-09-05T22:58:26.596Z,33.76
2022-09-05T23:00:54.270Z,33.88
2022-09-05T23:03:21.887Z,33.92
2022-09-05T23:05:49.322Z,33.87
2022-09-05T23:08:16.984Z,33.74
2022-09-05T23:10:45.713Z,33.66
2022-09-05T23:13:13.066Z,34.08
2022-09-05T23:15:40.666Z,33.70
2022-09-05T23:18:08.069Z,33.65
2022-09-05T23:20:35.469Z,33.60
2022-09-05T23:23:05.144Z,33.61
2022-09-05T23:25:33.776Z,33.70
2022-09-05T23:28:06.302Z,33.65
2022-09-05T23:30:35.290Z,33.47
2022-09-05T23:33:06.220Z,33.56
2022-09-05T23:35:34.965Z,33.20
2022-09-05T23:38:02.985Z,33.09
2022-09-05T23:40:30.321Z,33.17
2022-09-05T23:43:01.124Z,32.80
2022-09-05T23:45:29.244Z,33.08
2022-09-05T23:47:58.262Z,33.12
2022-09-05T23:50:27.090Z,32.83
2022-09-05T23:52:54.912Z,32.98
2022-09-05T23:55:23.356Z,32.96
2022-09-05T23:57:57.306Z,33.22
